Terminal Aerodrome Forecast
Issued by NWS

Home | Current Version | Previous Version | Text Only | Print | Product List | Glossary On
Versions: 1 2 3 4 5 6 7 8 9 10 11 12 13 14 15 16 17 18 19 20 21 22 23 24 25 26 27 28 29 30 31 32 33
000
FTUS41 KCTP 291800 RRA
TAFBFD
TAF
KBFD 291800Z 2918/3018 27010G17KT P6SM SCT035 BKN060
     FM292200 26007KT P6SM SCT030
     FM300200 20007KT P6SM SCT060 BKN120
     FM301300 22007G15KT P6SM VCSH BKN023 BKN050=

USA.gov is the U.S. government's official web portal to all federal, state and local government web resources and services.